sensor_id;sensor_type;location;lat;lon;timestamp;P1;durP1;ratioP1;P2;durP2;ratioP2
31270;SDS011;17904;47.420;9.310;2022-08-19T00:01:51;11.05;;;9.77;;
31270;SDS011;17904;47.420;9.310;2022-08-19T00:04:20;12.77;;;11.27;;
31270;SDS011;17904;47.420;9.310;2022-08-19T00:06:49;10.52;;;8.88;;
31270;SDS011;17904;47.420;9.310;2022-08-19T00:09:18;11.25;;;9.25;;
31270;SDS011;17904;47.420;9.310;2022-08-19T00:11:46;14.27;;;10.63;;
31270;SDS011;17904;47.420;9.310;2022-08-19T00:14:13;13.20;;;11.23;;
31270;SDS011;17904;47.420;9.310;2022-08-19T00:16:42;10.45;;;9.20;;
31270;SDS011;17904;47.420;9.310;2022-08-19T00:19:11;11.52;;;10.32;;
31270;SDS011;17904;47.420;9.310;2022-08-19T00:21:39;13.65;;;12.10;;
31270;SDS011;17904;47.420;9.310;2022-08-19T00:24:09;19.25;;;13.98;;
31270;SDS011;17904;47.420;9.310;2022-08-19T00:26:38;12.40;;;11.13;;
31270;SDS011;17904;47.420;9.310;2022-08-19T00:29:06;15.82;;;13.50;;
31270;SDS011;17904;47.420;9.310;2022-08-19T00:31:35;17.98;;;15.93;;
31270;SDS011;17904;47.420;9.310;2022-08-19T00:34:02;15.13;;;13.52;;
31270;SDS011;17904;47.420;9.310;2022-08-19T00:36:29;14.50;;;12.18;;
31270;SDS011;17904;47.420;9.310;2022-08-19T00:38:56;13.60;;;11.80;;
31270;SDS011;17904;47.420;9.310;2022-08-19T00:43:57;21.27;;;15.05;;
31270;SDS011;17904;47.420;9.310;2022-08-19T00:46:24;16.13;;;13.88;;
31270;SDS011;17904;47.420;9.310;2022-08-19T00:48:51;18.48;;;14.57;;
31270;SDS011;17904;47.420;9.310;2022-08-19T00:51:18;21.67;;;13.68;;
31270;SDS011;17904;47.420;9.310;2022-08-19T00:53:45;13.15;;;11.50;;
31270;SDS011;17904;47.420;9.310;2022-08-19T00:58:38;13.60;;;12.07;;
31270;SDS011;17904;47.420;9.310;2022-08-19T01:01:06;18.75;;;15.35;;
31270;SDS011;17904;47.420;9.310;2022-08-19T01:03:34;14.73;;;11.43;;
31270;SDS011;17904;47.420;9.310;2022-08-19T01:06:21;16.73;;;13.93;;
31270;SDS011;17904;47.420;9.310;2022-08-19T01:08:48;18.65;;;13.90;;
31270;SDS011;17904;47.420;9.310;2022-08-19T01:11:15;16.45;;;10.93;;
31270;SDS011;17904;47.420;9.310;2022-08-19T01:13:42;13.38;;;11.95;;
31270;SDS011;17904;47.420;9.310;2022-08-19T01:16:15;14.88;;;12.13;;
31270;SDS011;17904;47.420;9.310;2022-08-19T01:18:45;14.15;;;12.63;;
31270;SDS011;17904;47.420;9.310;2022-08-19T01:21:16;15.68;;;13.55;;
31270;SDS011;17904;47.420;9.310;2022-08-19T01:23:52;16.98;;;14.95;;
31270;SDS011;17904;47.420;9.310;2022-08-19T01:26:20;14.70;;;12.73;;
31270;SDS011;17904;47.420;9.310;2022-08-19T01:28:50;16.13;;;13.02;;
31270;SDS011;17904;47.420;9.310;2022-08-19T01:31:20;18.40;;;13.43;;
31270;SDS011;17904;47.420;9.310;2022-08-19T01:33:53;18.38;;;13.68;;
31270;SDS011;17904;47.420;9.310;2022-08-19T01:36:24;14.35;;;12.85;;
31270;SDS011;17904;47.420;9.310;2022-08-19T01:39:04;13.75;;;12.13;;
31270;SDS011;17904;47.420;9.310;2022-08-19T01:41:32;17.23;;;13.32;;
31270;SDS011;17904;47.420;9.310;2022-08-19T01:44:00;14.70;;;12.00;;
31270;SDS011;17904;47.420;9.310;2022-08-19T01:46:45;13.93;;;12.48;;
31270;SDS011;17904;47.420;9.310;2022-08-19T01:49:14;14.93;;;13.02;;
31270;SDS011;17904;47.420;9.310;2022-08-19T01:51:42;12.48;;;11.18;;
31270;SDS011;17904;47.420;9.310;2022-08-19T01:54:10;13.13;;;11.38;;
31270;SDS011;17904;47.420;9.310;2022-08-19T01:56:49;16.65;;;13.23;;
31270;SDS011;17904;47.420;9.310;2022-08-19T01:59:19;17.02;;;14.60;;
31270;SDS011;17904;47.420;9.310;2022-08-19T02:01:47;14.90;;;13.30;;
31270;SDS011;17904;47.420;9.310;2022-08-19T02:04:14;12.85;;;10.98;;
31270;SDS011;17904;47.420;9.310;2022-08-19T02:06:42;15.73;;;12.88;;
31270;SDS011;17904;47.420;9.310;2022-08-19T02:11:36;13.75;;;12.32;;
31270;SDS011;17904;47.420;9.310;2022-08-19T02:14:05;14.95;;;11.95;;
31270;SDS011;17904;47.420;9.310;2022-08-19T02:16:33;12.93;;;11.48;;
31270;SDS011;17904;47.420;9.310;2022-08-19T02:19:01;14.35;;;12.15;;
31270;SDS011;17904;47.420;9.310;2022-08-19T02:21:29;15.15;;;12.20;;
31270;SDS011;17904;47.420;9.310;2022-08-19T02:23:56;13.43;;;11.23;;
31270;SDS011;17904;47.420;9.310;2022-08-19T02:26:23;15.90;;;13.82;;
31270;SDS011;17904;47.420;9.310;2022-08-19T02:28:52;22.95;;;15.60;;
31270;SDS011;17904;47.420;9.310;2022-08-19T02:31:22;18.45;;;15.13;;
31270;SDS011;17904;47.420;9.310;2022-08-19T02:33:51;17.40;;;13.88;;
31270;SDS011;17904;47.420;9.310;2022-08-19T02:36:22;16.00;;;12.73;;
31270;SDS011;17904;47.420;9.310;2022-08-19T02:38:50;15.52;;;12.02;;
31270;SDS011;17904;47.420;9.310;2022-08-19T02:41:27;22.98;;;15.70;;
31270;SDS011;17904;47.420;9.310;2022-08-19T02:43:57;20.95;;;14.77;;
31270;SDS011;17904;47.420;9.310;2022-08-19T02:46:47;17.30;;;15.38;;
31270;SDS011;17904;47.420;9.310;2022-08-19T02:49:18;15.70;;;12.70;;
31270;SDS011;17904;47.420;9.310;2022-08-19T02:51:45;15.93;;;13.50;;
31270;SDS011;17904;47.420;9.310;2022-08-19T02:54:13;16.08;;;13.27;;
31270;SDS011;17904;47.420;9.310;2022-08-19T02:56:41;18.13;;;13.60;;
31270;SDS011;17904;47.420;9.310;2022-08-19T02:59:08;14.88;;;11.32;;
31270;SDS011;17904;47.420;9.310;2022-08-19T03:01:38;16.88;;;12.32;;
31270;SDS011;17904;47.420;9.310;2022-08-19T03:04:07;16.08;;;13.95;;
31270;SDS011;17904;47.420;9.310;2022-08-19T03:06:36;18.38;;;12.27;;
31270;SDS011;17904;47.420;9.310;2022-08-19T03:09:04;17.85;;;13.77;;
31270;SDS011;17904;47.420;9.310;2022-08-19T03:13:58;18.10;;;14.73;;
31270;SDS011;17904;47.420;9.310;2022-08-19T03:16:28;14.15;;;12.55;;
31270;SDS011;17904;47.420;9.310;2022-08-19T03:18:59;19.40;;;14.13;;
31270;SDS011;17904;47.420;9.310;2022-08-19T03:21:29;16.60;;;13.38;;
31270;SDS011;17904;47.420;9.310;2022-08-19T03:23:58;20.98;;;15.10;;
31270;SDS011;17904;47.420;9.310;2022-08-19T03:26:30;20.13;;;16.75;;
31270;SDS011;17904;47.420;9.310;2022-08-19T03:28:57;15.75;;;13.30;;
31270;SDS011;17904;47.420;9.310;2022-08-19T03:31:31;16.60;;;13.50;;
31270;SDS011;17904;47.420;9.310;2022-08-19T03:34:19;17.10;;;13.38;;
31270;SDS011;17904;47.420;9.310;2022-08-19T03:36:54;13.60;;;12.23;;
31270;SDS011;17904;47.420;9.310;2022-08-19T03:39:23;19.83;;;16.42;;
31270;SDS011;17904;47.420;9.310;2022-08-19T03:41:51;14.68;;;12.50;;
31270;SDS011;17904;47.420;9.310;2022-08-19T03:44:39;14.68;;;12.73;;
31270;SDS011;17904;47.420;9.310;2022-08-19T03:47:08;25.50;;;18.52;;
31270;SDS011;17904;47.420;9.310;2022-08-19T03:49:36;18.58;;;15.40;;
31270;SDS011;17904;47.420;9.310;2022-08-19T03:52:03;18.63;;;15.90;;
31270;SDS011;17904;47.420;9.310;2022-08-19T03:54:33;18.50;;;15.30;;
31270;SDS011;17904;47.420;9.310;2022-08-19T03:57:00;25.38;;;19.13;;
31270;SDS011;17904;47.420;9.310;2022-08-19T03:59:30;24.23;;;18.65;;
31270;SDS011;17904;47.420;9.310;2022-08-19T04:01:59;20.27;;;17.02;;
31270;SDS011;17904;47.420;9.310;2022-08-19T04:04:29;26.80;;;20.73;;
31270;SDS011;17904;47.420;9.310;2022-08-19T04:06:57;25.63;;;18.73;;
31270;SDS011;17904;47.420;9.310;2022-08-19T04:09:24;21.00;;;15.57;;
31270;SDS011;17904;47.420;9.310;2022-08-19T04:11:54;19.00;;;14.30;;
31270;SDS011;17904;47.420;9.310;2022-08-19T04:14:23;26.23;;;20.98;;
31270;SDS011;17904;47.420;9.310;2022-08-19T04:16:52;22.30;;;16.15;;
31270;SDS011;17904;47.420;9.310;2022-08-19T04:19:20;22.67;;;17.25;;
31270;SDS011;17904;47.420;9.310;2022-08-19T04:21:48;19.40;;;15.95;;
31270;SDS011;17904;47.420;9.310;2022-08-19T04:24:17;22.52;;;15.82;;
31270;SDS011;17904;47.420;9.310;2022-08-19T04:26:45;18.05;;;14.80;;
31270;SDS011;17904;47.420;9.310;2022-08-19T04:29:17;22.30;;;17.40;;
31270;SDS011;17904;47.420;9.310;2022-08-19T04:31:49;19.48;;;15.98;;
31270;SDS011;17904;47.420;9.310;2022-08-19T04:34:16;19.63;;;15.60;;
31270;SDS011;17904;47.420;9.310;2022-08-19T04:36:48;23.05;;;18.30;;
31270;SDS011;17904;47.420;9.310;2022-08-19T04:39:18;20.02;;;15.70;;
31270;SDS011;17904;47.420;9.310;2022-08-19T04:41:47;20.70;;;17.35;;
31270;SDS011;17904;47.420;9.310;2022-08-19T04:44:33;22.20;;;17.40;;
31270;SDS011;17904;47.420;9.310;2022-08-19T04:47:05;17.52;;;14.95;;
31270;SDS011;17904;47.420;9.310;2022-08-19T04:49:36;20.95;;;17.77;;
31270;SDS011;17904;47.420;9.310;2022-08-19T04:52:03;21.10;;;17.08;;
31270;SDS011;17904;47.420;9.310;2022-08-19T04:54:30;17.25;;;13.85;;
31270;SDS011;17904;47.420;9.310;2022-08-19T04:57:05;19.45;;;14.93;;
31270;SDS011;17904;47.420;9.310;2022-08-19T04:59:37;21.95;;;17.40;;
31270;SDS011;17904;47.420;9.310;2022-08-19T05:02:06;18.85;;;15.82;;
31270;SDS011;17904;47.420;9.310;2022-08-19T05:04:34;31.08;;;25.23;;
31270;SDS011;17904;47.420;9.310;2022-08-19T05:07:05;30.08;;;22.27;;
31270;SDS011;17904;47.420;9.310;2022-08-19T05:09:33;22.67;;;19.40;;
31270;SDS011;17904;47.420;9.310;2022-08-19T05:12:20;39.33;;;26.57;;
31270;SDS011;17904;47.420;9.310;2022-08-19T05:14:54;39.63;;;28.30;;
31270;SDS011;17904;47.420;9.310;2022-08-19T05:17:22;27.15;;;21.67;;
31270;SDS011;17904;47.420;9.310;2022-08-19T05:19:54;31.40;;;23.15;;
31270;SDS011;17904;47.420;9.310;2022-08-19T05:22:41;34.22;;;25.10;;
31270;SDS011;17904;47.420;9.310;2022-08-19T05:25:11;36.97;;;26.25;;
31270;SDS011;17904;47.420;9.310;2022-08-19T05:27:41;32.85;;;25.83;;
31270;SDS011;17904;47.420;9.310;2022-08-19T05:30:09;35.40;;;26.58;;
31270;SDS011;17904;47.420;9.310;2022-08-19T05:32:37;42.58;;;31.85;;
31270;SDS011;17904;47.420;9.310;2022-08-19T05:35:05;45.22;;;33.08;;
31270;SDS011;17904;47.420;9.310;2022-08-19T05:37:32;39.70;;;31.13;;
31270;SDS011;17904;47.420;9.310;2022-08-19T05:42:26;39.08;;;29.92;;
31270;SDS011;17904;47.420;9.310;2022-08-19T05:44:53;40.90;;;27.23;;
31270;SDS011;17904;47.420;9.310;2022-08-19T05:47:20;37.42;;;27.00;;
31270;SDS011;17904;47.420;9.310;2022-08-19T05:49:47;42.75;;;29.67;;
31270;SDS011;17904;47.420;9.310;2022-08-19T05:52:15;42.92;;;29.55;;
31270;SDS011;17904;47.420;9.310;2022-08-19T05:54:44;35.13;;;25.83;;
31270;SDS011;17904;47.420;9.310;2022-08-19T05:57:17;41.90;;;29.30;;
31270;SDS011;17904;47.420;9.310;2022-08-19T05:59:44;44.92;;;29.80;;
31270;SDS011;17904;47.420;9.310;2022-08-19T06:02:24;43.58;;;27.42;;
31270;SDS011;17904;47.420;9.310;2022-08-19T06:04:59;41.72;;;28.77;;
31270;SDS011;17904;47.420;9.310;2022-08-19T06:07:26;40.53;;;28.50;;
31270;SDS011;17904;47.420;9.310;2022-08-19T06:09:53;40.60;;;28.73;;
31270;SDS011;17904;47.420;9.310;2022-08-19T06:12:29;44.45;;;29.90;;
31270;SDS011;17904;47.420;9.310;2022-08-19T06:15:01;42.88;;;29.77;;
31270;SDS011;17904;47.420;9.310;2022-08-19T06:17:30;41.28;;;28.73;;
31270;SDS011;17904;47.420;9.310;2022-08-19T06:19:58;44.03;;;30.40;;
31270;SDS011;17904;47.420;9.310;2022-08-19T06:22:25;42.53;;;27.83;;
31270;SDS011;17904;47.420;9.310;2022-08-19T06:24:53;48.58;;;32.70;;
31270;SDS011;17904;47.420;9.310;2022-08-19T06:27:21;47.00;;;31.13;;
31270;SDS011;17904;47.420;9.310;2022-08-19T06:29:48;51.80;;;33.95;;
31270;SDS011;17904;47.420;9.310;2022-08-19T06:32:16;50.33;;;33.45;;
31270;SDS011;17904;47.420;9.310;2022-08-19T06:34:44;46.45;;;30.05;;
31270;SDS011;17904;47.420;9.310;2022-08-19T06:37:12;43.50;;;29.98;;
31270;SDS011;17904;47.420;9.310;2022-08-19T06:39:40;45.05;;;30.98;;
31270;SDS011;17904;47.420;9.310;2022-08-19T06:42:08;36.85;;;26.90;;
31270;SDS011;17904;47.420;9.310;2022-08-19T06:44:39;37.92;;;24.25;;
31270;SDS011;17904;47.420;9.310;2022-08-19T06:47:10;41.85;;;25.02;;
31270;SDS011;17904;47.420;9.310;2022-08-19T06:49:55;34.58;;;23.27;;
31270;SDS011;17904;47.420;9.310;2022-08-19T06:52:34;33.90;;;22.95;;
31270;SDS011;17904;47.420;9.310;2022-08-19T06:55:03;30.17;;;20.67;;
31270;SDS011;17904;47.420;9.310;2022-08-19T06:57:32;33.95;;;23.77;;
31270;SDS011;17904;47.420;9.310;2022-08-19T07:00:00;35.05;;;25.40;;
31270;SDS011;17904;47.420;9.310;2022-08-19T07:02:27;36.42;;;23.00;;
31270;SDS011;17904;47.420;9.310;2022-08-19T07:04:54;26.65;;;19.38;;
31270;SDS011;17904;47.420;9.310;2022-08-19T07:07:24;22.67;;;16.42;;
31270;SDS011;17904;47.420;9.310;2022-08-19T07:09:52;21.42;;;16.90;;
31270;SDS011;17904;47.420;9.310;2022-08-19T07:12:28;24.17;;;16.25;;
31270;SDS011;17904;47.420;9.310;2022-08-19T07:14:57;17.80;;;13.70;;
31270;SDS011;17904;47.420;9.310;2022-08-19T07:17:24;14.82;;;12.63;;
31270;SDS011;17904;47.420;9.310;2022-08-19T07:19:53;16.27;;;12.25;;
31270;SDS011;17904;47.420;9.310;2022-08-19T07:22:21;18.77;;;13.98;;
31270;SDS011;17904;47.420;9.310;2022-08-19T07:24:51;19.98;;;14.13;;
31270;SDS011;17904;47.420;9.310;2022-08-19T07:27:18;18.60;;;14.10;;
31270;SDS011;17904;47.420;9.310;2022-08-19T07:29:51;16.52;;;11.95;;
31270;SDS011;17904;47.420;9.310;2022-08-19T07:32:24;18.13;;;11.68;;
31270;SDS011;17904;47.420;9.310;2022-08-19T07:34:53;14.30;;;11.35;;
31270;SDS011;17904;47.420;9.310;2022-08-19T07:37:22;13.30;;;9.40;;
31270;SDS011;17904;47.420;9.310;2022-08-19T07:39:54;14.95;;;10.18;;
31270;SDS011;17904;47.420;9.310;2022-08-19T07:42:22;18.67;;;12.73;;
31270;SDS011;17904;47.420;9.310;2022-08-19T07:44:49;17.70;;;12.32;;
31270;SDS011;17904;47.420;9.310;2022-08-19T07:47:16;16.67;;;11.93;;
31270;SDS011;17904;47.420;9.310;2022-08-19T07:50:05;15.35;;;12.07;;
31270;SDS011;17904;47.420;9.310;2022-08-19T07:52:34;17.50;;;13.25;;
31270;SDS011;17904;47.420;9.310;2022-08-19T07:55:05;18.17;;;13.52;;
31270;SDS011;17904;47.420;9.310;2022-08-19T07:57:54;22.08;;;15.45;;
31270;SDS011;17904;47.420;9.310;2022-08-19T08:00:21;24.10;;;17.30;;
31270;SDS011;17904;47.420;9.310;2022-08-19T08:02:50;21.42;;;16.10;;
31270;SDS011;17904;47.420;9.310;2022-08-19T08:05:21;22.25;;;15.88;;
31270;SDS011;17904;47.420;9.310;2022-08-19T08:08:10;19.95;;;16.00;;
31270;SDS011;17904;47.420;9.310;2022-08-19T08:11:10;19.10;;;14.25;;
31270;SDS011;17904;47.420;9.310;2022-08-19T08:13:40;23.77;;;16.58;;
31270;SDS011;17904;47.420;9.310;2022-08-19T08:16:07;24.35;;;17.98;;
31270;SDS011;17904;47.420;9.310;2022-08-19T08:18:39;32.05;;;21.35;;
31270;SDS011;17904;47.420;9.310;2022-08-19T08:21:18;28.65;;;21.00;;
31270;SDS011;17904;47.420;9.310;2022-08-19T08:23:45;38.42;;;25.92;;
31270;SDS011;17904;47.420;9.310;2022-08-19T08:26:12;37.45;;;26.48;;
31270;SDS011;17904;47.420;9.310;2022-08-19T08:28:42;36.17;;;26.42;;
31270;SDS011;17904;47.420;9.310;2022-08-19T08:31:13;37.88;;;28.90;;
31270;SDS011;17904;47.420;9.310;2022-08-19T08:33:40;42.58;;;29.17;;
31270;SDS011;17904;47.420;9.310;2022-08-19T08:36:08;41.25;;;29.02;;
31270;SDS011;17904;47.420;9.310;2022-08-19T08:38:38;40.20;;;28.17;;
31270;SDS011;17904;47.420;9.310;2022-08-19T08:43:54;43.77;;;30.53;;
31270;SDS011;17904;47.420;9.310;2022-08-19T08:46:44;38.97;;;28.63;;
31270;SDS011;17904;47.420;9.310;2022-08-19T08:52:31;39.55;;;25.67;;
31270;SDS011;17904;47.420;9.310;2022-08-19T08:55:05;41.45;;;27.35;;
31270;SDS011;17904;47.420;9.310;2022-08-19T08:57:38;47.00;;;30.50;;
31270;SDS011;17904;47.420;9.310;2022-08-19T09:00:19;47.78;;;33.63;;
31270;SDS011;17904;47.420;9.310;2022-08-19T09:02:53;57.85;;;36.65;;
31270;SDS011;17904;47.420;9.310;2022-08-19T09:05:22;50.53;;;32.38;;
31270;SDS011;17904;47.420;9.310;2022-08-19T09:08:24;47.28;;;31.20;;
31270;SDS011;17904;47.420;9.310;2022-08-19T09:11:04;45.53;;;30.92;;
31270;SDS011;17904;47.420;9.310;2022-08-19T09:16:07;43.03;;;28.65;;
31270;SDS011;17904;47.420;9.310;2022-08-19T09:21:10;28.70;;;20.25;;
31270;SDS011;17904;47.420;9.310;2022-08-19T09:23:37;34.00;;;19.73;;
31270;SDS011;17904;47.420;9.310;2022-08-19T09:26:11;23.70;;;17.00;;
31270;SDS011;17904;47.420;9.310;2022-08-19T09:31:17;22.30;;;15.73;;
31270;SDS011;17904;47.420;9.310;2022-08-19T09:33:46;28.08;;;18.58;;
31270;SDS011;17904;47.420;9.310;2022-08-19T09:36:18;26.70;;;19.15;;
31270;SDS011;17904;47.420;9.310;2022-08-19T09:38:56;27.90;;;19.15;;
31270;SDS011;17904;47.420;9.310;2022-08-19T09:41:24;28.55;;;19.98;;
31270;SDS011;17904;47.420;9.310;2022-08-19T09:43:54;35.40;;;24.27;;
31270;SDS011;17904;47.420;9.310;2022-08-19T09:46:23;43.38;;;28.77;;
31270;SDS011;17904;47.420;9.310;2022-08-19T09:48:52;41.97;;;28.65;;
31270;SDS011;17904;47.420;9.310;2022-08-19T09:51:22;35.38;;;25.58;;
31270;SDS011;17904;47.420;9.310;2022-08-19T09:53:51;52.33;;;31.02;;
31270;SDS011;17904;47.420;9.310;2022-08-19T09:56:21;37.97;;;26.85;;
31270;SDS011;17904;47.420;9.310;2022-08-19T09:58:49;52.35;;;32.97;;
31270;SDS011;17904;47.420;9.310;2022-08-19T10:01:18;46.42;;;30.88;;
31270;SDS011;17904;47.420;9.310;2022-08-19T10:03:50;50.92;;;31.45;;
31270;SDS011;17904;47.420;9.310;2022-08-19T10:06:20;44.17;;;30.30;;
31270;SDS011;17904;47.420;9.310;2022-08-19T10:09:09;50.55;;;33.53;;
31270;SDS011;17904;47.420;9.310;2022-08-19T10:11:39;51.38;;;32.05;;
31270;SDS011;17904;47.420;9.310;2022-08-19T10:14:19;50.85;;;33.03;;
31270;SDS011;17904;47.420;9.310;2022-08-19T10:16:48;47.47;;;30.80;;
31270;SDS011;17904;47.420;9.310;2022-08-19T10:19:18;45.95;;;30.40;;
31270;SDS011;17904;47.420;9.310;2022-08-19T10:21:52;51.13;;;32.05;;
31270;SDS011;17904;47.420;9.310;2022-08-19T10:24:26;43.97;;;28.17;;
31270;SDS011;17904;47.420;9.310;2022-08-19T10:26:54;43.75;;;27.17;;
31270;SDS011;17904;47.420;9.310;2022-08-19T10:29:24;44.90;;;28.05;;
31270;SDS011;17904;47.420;9.310;2022-08-19T10:31:59;42.45;;;26.98;;
31270;SDS011;17904;47.420;9.310;2022-08-19T10:34:29;35.45;;;24.40;;
31270;SDS011;17904;47.420;9.310;2022-08-19T10:36:57;37.25;;;21.98;;
31270;SDS011;17904;47.420;9.310;2022-08-19T10:39:28;40.25;;;24.83;;
31270;SDS011;17904;47.420;9.310;2022-08-19T10:41:56;31.98;;;20.45;;
31270;SDS011;17904;47.420;9.310;2022-08-19T10:44:24;39.92;;;26.50;;
31270;SDS011;17904;47.420;9.310;2022-08-19T10:46:58;50.92;;;30.50;;
31270;SDS011;17904;47.420;9.310;2022-08-19T10:49:25;40.90;;;25.77;;
31270;SDS011;17904;47.420;9.310;2022-08-19T10:51:53;39.22;;;26.13;;
31270;SDS011;17904;47.420;9.310;2022-08-19T10:54:45;40.63;;;25.83;;
31270;SDS011;17904;47.420;9.310;2022-08-19T10:57:34;34.28;;;24.08;;
31270;SDS011;17904;47.420;9.310;2022-08-19T11:00:21;30.48;;;20.80;;
31270;SDS011;17904;47.420;9.310;2022-08-19T11:02:50;34.33;;;22.85;;
31270;SDS011;17904;47.420;9.310;2022-08-19T11:05:18;39.63;;;26.48;;
31270;SDS011;17904;47.420;9.310;2022-08-19T11:07:45;39.08;;;27.33;;
31270;SDS011;17904;47.420;9.310;2022-08-19T11:10:13;36.90;;;26.55;;
31270;SDS011;17904;47.420;9.310;2022-08-19T11:12:46;44.60;;;29.95;;
31270;SDS011;17904;47.420;9.310;2022-08-19T11:15:13;42.20;;;29.75;;
31270;SDS011;17904;47.420;9.310;2022-08-19T11:17:41;44.53;;;29.80;;
31270;SDS011;17904;47.420;9.310;2022-08-19T11:20:13;49.53;;;30.70;;
31270;SDS011;17904;47.420;9.310;2022-08-19T11:22:41;43.42;;;28.92;;
31270;SDS011;17904;47.420;9.310;2022-08-19T11:25:09;46.25;;;27.13;;
31270;SDS011;17904;47.420;9.310;2022-08-19T11:27:41;43.90;;;22.10;;
31270;SDS011;17904;47.420;9.310;2022-08-19T11:30:09;31.40;;;23.38;;
31270;SDS011;17904;47.420;9.310;2022-08-19T11:32:39;33.83;;;23.80;;
31270;SDS011;17904;47.420;9.310;2022-08-19T11:35:13;39.28;;;27.38;;
31270;SDS011;17904;47.420;9.310;2022-08-19T11:37:40;49.83;;;33.78;;
31270;SDS011;17904;47.420;9.310;2022-08-19T11:42:34;54.95;;;34.58;;
31270;SDS011;17904;47.420;9.310;2022-08-19T11:45:20;41.83;;;28.45;;
31270;SDS011;17904;47.420;9.310;2022-08-19T11:47:47;44.10;;;29.10;;
31270;SDS011;17904;47.420;9.310;2022-08-19T11:50:15;39.88;;;27.85;;
31270;SDS011;17904;47.420;9.310;2022-08-19T11:52:42;39.45;;;26.15;;
31270;SDS011;17904;47.420;9.310;2022-08-19T11:55:11;43.60;;;29.23;;
31270;SDS011;17904;47.420;9.310;2022-08-19T11:57:39;47.33;;;32.85;;
31270;SDS011;17904;47.420;9.310;2022-08-19T12:00:10;50.25;;;31.98;;
31270;SDS011;17904;47.420;9.310;2022-08-19T12:02:41;53.90;;;31.95;;
31270;SDS011;17904;47.420;9.310;2022-08-19T12:05:08;45.15;;;29.38;;
31270;SDS011;17904;47.420;9.310;2022-08-19T12:07:38;49.20;;;30.98;;
31270;SDS011;17904;47.420;9.310;2022-08-19T12:10:07;44.13;;;31.27;;
31270;SDS011;17904;47.420;9.310;2022-08-19T12:12:36;52.28;;;32.67;;
31270;SDS011;17904;47.420;9.310;2022-08-19T12:15:06;49.78;;;31.23;;
31270;SDS011;17904;47.420;9.310;2022-08-19T12:17:33;48.88;;;31.90;;
31270;SDS011;17904;47.420;9.310;2022-08-19T12:20:00;57.50;;;34.30;;
31270;SDS011;17904;47.420;9.310;2022-08-19T12:22:27;54.53;;;34.60;;
31270;SDS011;17904;47.420;9.310;2022-08-19T12:24:55;53.08;;;34.30;;
31270;SDS011;17904;47.420;9.310;2022-08-19T12:27:22;62.65;;;37.88;;
31270;SDS011;17904;47.420;9.310;2022-08-19T12:30:06;56.42;;;36.97;;
31270;SDS011;17904;47.420;9.310;2022-08-19T12:32:37;71.45;;;40.45;;
31270;SDS011;17904;47.420;9.310;2022-08-19T12:35:04;65.90;;;39.15;;
31270;SDS011;17904;47.420;9.310;2022-08-19T12:37:32;68.60;;;42.05;;
31270;SDS011;17904;47.420;9.310;2022-08-19T12:40:00;69.53;;;40.83;;
31270;SDS011;17904;47.420;9.310;2022-08-19T12:42:27;70.90;;;44.25;;
31270;SDS011;17904;47.420;9.310;2022-08-19T12:44:54;67.43;;;42.78;;
31270;SDS011;17904;47.420;9.310;2022-08-19T12:47:21;75.45;;;46.13;;
31270;SDS011;17904;47.420;9.310;2022-08-19T12:52:21;73.97;;;43.38;;
31270;SDS011;17904;47.420;9.310;2022-08-19T12:54:53;67.63;;;43.35;;
31270;SDS011;17904;47.420;9.310;2022-08-19T12:57:22;79.28;;;47.05;;
31270;SDS011;17904;47.420;9.310;2022-08-19T13:00:09;79.63;;;47.65;;
31270;SDS011;17904;47.420;9.310;2022-08-19T13:02:40;85.55;;;48.20;;
31270;SDS011;17904;47.420;9.310;2022-08-19T13:05:10;76.40;;;47.58;;
31270;SDS011;17904;47.420;9.310;2022-08-19T13:07:40;79.22;;;48.72;;
31270;SDS011;17904;47.420;9.310;2022-08-19T13:10:07;74.20;;;48.08;;
31270;SDS011;17904;47.420;9.310;2022-08-19T13:12:37;72.63;;;47.75;;
31270;SDS011;17904;47.420;9.310;2022-08-19T13:15:05;70.05;;;45.03;;
31270;SDS011;17904;47.420;9.310;2022-08-19T13:17:37;80.22;;;48.95;;
31270;SDS011;17904;47.420;9.310;2022-08-19T13:20:05;72.15;;;45.42;;
31270;SDS011;17904;47.420;9.310;2022-08-19T13:22:36;60.38;;;41.83;;
31270;SDS011;17904;47.420;9.310;2022-08-19T13:25:04;61.88;;;41.00;;
31270;SDS011;17904;47.420;9.310;2022-08-19T13:27:32;66.45;;;43.53;;
31270;SDS011;17904;47.420;9.310;2022-08-19T13:29:59;70.82;;;43.55;;
31270;SDS011;17904;47.420;9.310;2022-08-19T13:32:45;58.78;;;41.10;;
31270;SDS011;17904;47.420;9.310;2022-08-19T13:35:31;63.75;;;41.65;;
31270;SDS011;17904;47.420;9.310;2022-08-19T13:37:57;59.17;;;41.33;;
31270;SDS011;17904;47.420;9.310;2022-08-19T13:40:24;63.08;;;39.97;;
31270;SDS011;17904;47.420;9.310;2022-08-19T13:42:53;53.15;;;37.45;;
31270;SDS011;17904;47.420;9.310;2022-08-19T13:45:22;55.50;;;36.33;;
31270;SDS011;17904;47.420;9.310;2022-08-19T13:47:51;60.22;;;39.88;;
31270;SDS011;17904;47.420;9.310;2022-08-19T13:50:28;64.60;;;41.30;;
31270;SDS011;17904;47.420;9.310;2022-08-19T13:52:59;61.60;;;41.25;;
31270;SDS011;17904;47.420;9.310;2022-08-19T13:55:27;56.67;;;38.63;;
31270;SDS011;17904;47.420;9.310;2022-08-19T13:57:55;54.53;;;38.08;;
31270;SDS011;17904;47.420;9.310;2022-08-19T14:00:24;51.92;;;38.70;;
31270;SDS011;17904;47.420;9.310;2022-08-19T14:02:54;53.05;;;37.80;;
31270;SDS011;17904;47.420;9.310;2022-08-19T14:05:23;53.05;;;38.25;;
31270;SDS011;17904;47.420;9.310;2022-08-19T14:07:51;58.17;;;40.15;;
31270;SDS011;17904;47.420;9.310;2022-08-19T14:10:19;56.97;;;40.78;;
31270;SDS011;17904;47.420;9.310;2022-08-19T14:12:46;61.97;;;41.08;;
31270;SDS011;17904;47.420;9.310;2022-08-19T14:15:14;59.83;;;39.40;;
31270;SDS011;17904;47.420;9.310;2022-08-19T14:17:42;59.72;;;40.00;;
31270;SDS011;17904;47.420;9.310;2022-08-19T14:20:10;56.60;;;38.90;;
31270;SDS011;17904;47.420;9.310;2022-08-19T14:22:44;60.55;;;41.05;;
31270;SDS011;17904;47.420;9.310;2022-08-19T14:25:14;65.07;;;40.63;;
31270;SDS011;17904;47.420;9.310;2022-08-19T14:27:45;57.25;;;39.00;;
31270;SDS011;17904;47.420;9.310;2022-08-19T14:30:14;49.53;;;36.67;;
31270;SDS011;17904;47.420;9.310;2022-08-19T14:32:43;54.15;;;38.60;;
31270;SDS011;17904;47.420;9.310;2022-08-19T14:35:10;52.55;;;36.67;;
31270;SDS011;17904;47.420;9.310;2022-08-19T14:37:39;55.92;;;40.35;;
31270;SDS011;17904;47.420;9.310;2022-08-19T14:40:11;53.30;;;37.47;;
31270;SDS011;17904;47.420;9.310;2022-08-19T14:42:40;55.50;;;39.10;;
31270;SDS011;17904;47.420;9.310;2022-08-19T14:45:08;53.33;;;37.47;;
31270;SDS011;17904;47.420;9.310;2022-08-19T14:47:36;53.22;;;37.17;;
31270;SDS011;17904;47.420;9.310;2022-08-19T14:50:07;52.78;;;37.60;;
31270;SDS011;17904;47.420;9.310;2022-08-19T14:52:36;50.40;;;36.90;;
31270;SDS011;17904;47.420;9.310;2022-08-19T14:55:04;57.88;;;38.40;;
31270;SDS011;17904;47.420;9.310;2022-08-19T14:57:33;50.28;;;35.83;;
31270;SDS011;17904;47.420;9.310;2022-08-19T14:59:59;47.88;;;33.05;;
31270;SDS011;17904;47.420;9.310;2022-08-19T15:02:26;50.15;;;35.67;;
31270;SDS011;17904;47.420;9.310;2022-08-19T15:05:00;56.15;;;36.00;;
31270;SDS011;17904;47.420;9.310;2022-08-19T15:07:28;46.80;;;33.95;;
31270;SDS011;17904;47.420;9.310;2022-08-19T15:09:55;58.35;;;41.38;;
31270;SDS011;17904;47.420;9.310;2022-08-19T15:12:23;52.42;;;36.42;;